Time;durP1;ratioP1;P1;durP2;ratioP2;P2;SDS_P1;SDS_P2;PMS_P1;PMS_P2;Temp;Humidity;BMP_temperature;BMP_pressure;BME280_temperature;BME280_humidity;BME280_pressure;Samples;Min_cycle;Max_cycle;Signal;HPM_P1;HPM_P2
2023/08/01 00:00:00;;;;;;;;;;;;;;;17.76;66.73;98906.78;4951521;28;5140;-75
2023/08/01 00:02:27;;;;;;;;;;;;;;;17.96;66.01;98919.16;4968731;28;5204;-76
2023/08/01 00:04:53;;;;;;;;;;;;;;;18.11;65.39;98915.25;4950382;28;4853;-75
2023/08/01 00:07:20;;;;;;;;;;;;;;;18.05;65.69;98917.31;4967943;28;5060;-76
2023/08/01 00:09:46;;;;;;;;;;;;;;;18.21;64.94;98908.78;4969899;28;4646;-76
2023/08/01 00:12:13;;;;;;;;;;;;;;;18.08;65.26;98907.72;4969174;28;5122;-76
2023/08/01 00:14:39;;;;;;;;;;;;;;;18.19;64.87;98900.09;4954622;28;5502;-76
2023/08/01 00:17:06;;;;;;;;;;;;;;;18.28;64.69;98896.31;4968062;28;4843;-76
2023/08/01 00:19:32;;;;;;;;;;;;;;;18.31;64.43;98890.25;4968281;28;4592;-76
2023/08/01 00:21:59;;;;;;;;;;;;;;;18.46;63.92;98882.78;4967826;28;4525;-76
2023/08/01 00:24:25;;;;;;;;;;;;;;;18.35;64.22;98883.06;4968154;28;4429;-75
2023/08/01 00:26:55;;;;;;;;;;;;;;;18.32;64.08;98885.59;4966946;28;5124;-75
2023/08/01 00:29:21;;;;;;;;;;;;;;;18.44;nan;98882.28;4969006;28;5139;-75
2023/08/01 00:31:48;;;;;;;;;;;;;;;18.35;63.76;98880.34;4967269;28;5290;-75
2023/08/01 00:34:14;;;;;;;;;;;;;;;18.42;63.79;98874.44;4968348;28;5198;-76
2023/08/01 00:36:41;;;;;;;;;;;;;;;18.25;64.44;98872.41;4966629;28;5037;-75
2023/08/01 00:39:09;;;;;;;;;;;;;;;18.27;64.42;98875.66;4970336;28;4639;-75
2023/08/01 00:41:36;;;;;;;;;;;;;;;18.43;63.32;98867.88;4970315;28;5201;-76
2023/08/01 00:44:02;;;;;;;;;;;;;;;18.36;63.80;98870.25;4971082;28;5040;-75
2023/08/01 00:46:29;;;;;;;;;;;;;;;18.32;63.77;98866.50;4969593;28;5339;-76
2023/08/01 00:48:57;;;;;;;;;;;;;;;18.43;63.45;98867.88;4972160;28;4899;-75
2023/08/01 00:51:24;;;;;;;;;;;;;;;18.38;63.80;98846.19;4970817;28;5249;-76
2023/08/01 00:53:50;;;;;;;;;;;;;;;18.29;63.74;98854.31;4954704;28;4526;-76
2023/08/01 00:56:17;;;;;;;;;;;;;;;18.35;63.65;98850.38;4957566;28;4416;-75
2023/08/01 00:58:44;;;;;;;;;;;;;;;18.31;63.72;98854.81;4973724;28;5126;-76
2023/08/01 01:01:10;;;;;;;;;;;;;;;18.33;63.85;98849.88;4971679;28;5286;-75
2023/08/01 01:03:37;;;;;;;;;;;;;;;18.46;63.30;98842.72;4970963;28;4575;-75
2023/08/01 01:06:04;;;;;;;;;;;;;;;18.36;63.46;98843.00;4970818;28;4253;-75
2023/08/01 01:08:30;;;;;;;;;;;;;;;18.29;63.68;98839.88;4969493;28;5007;-75
2023/08/01 01:10:57;;;;;;;;;;;;;;;18.39;63.32;98839.63;4956844;28;4938;-76
2023/08/01 01:13:23;;;;;;;;;;;;;;;18.46;63.10;98836.47;4971132;28;4686;-76
2023/08/01 01:15:50;;;;;;;;;;;;;;;18.33;63.54;98838.97;4972055;28;5195;-75
2023/08/01 01:18:16;;;;;;;;;;;;;;;18.27;63.61;98840.22;4970391;28;4711;-76
2023/08/01 01:20:43;;;;;;;;;;;;;;;18.33;63.43;98832.72;4968761;28;5108;-75
2023/08/01 01:23:09;;;;;;;;;;;;;;;18.28;63.41;98836.38;4968185;28;4999;-76
2023/08/01 01:25:36;;;;;;;;;;;;;;;18.20;63.43;98834.38;4967047;28;4284;-76
2023/08/01 01:28:02;;;;;;;;;;;;;;;18.34;63.28;98831.59;4970478;28;4935;-75
2023/08/01 01:30:29;;;;;;;;;;;;;;;18.34;63.27;98834.31;4967678;28;5284;-75
2023/08/01 01:32:55;;;;;;;;;;;;;;;18.32;63.08;98831.09;4951654;28;4501;-75
2023/08/01 01:35:22;;;;;;;;;;;;;;;18.16;63.37;98836.13;4968768;28;5092;-75
2023/08/01 01:37:48;;;;;;;;;;;;;;;18.28;63.40;98830.13;4970090;28;4917;-75
2023/08/01 01:40:15;;;;;;;;;;;;;;;18.32;63.11;98823.75;4968594;28;4956;-75
2023/08/01 01:42:41;;;;;;;;;;;;;;;18.26;63.35;98819.50;4952203;28;5039;-76
2023/08/01 01:45:08;;;;;;;;;;;;;;;18.16;63.44;98823.31;4971368;28;4696;-75
2023/08/01 01:47:34;;;;;;;;;;;;;;;18.17;63.50;98824.13;4967472;28;4495;-76
2023/08/01 01:50:00;;;;;;;;;;;;;;;18.02;63.69;98821.78;4965004;28;4535;-75
2023/08/01 01:52:27;;;;;;;;;;;;;;;18.15;63.23;98819.00;4969771;28;5233;-75
2023/08/01 01:54:53;;;;;;;;;;;;;;;18.14;63.48;98820.09;4969345;28;5044;-75
2023/08/01 01:57:20;;;;;;;;;;;;;;;18.12;63.43;98819.63;4969114;28;4740;-73
2023/08/01 01:59:46;;;;;;;;;;;;;;;18.09;63.60;98817.53;4968441;28;4744;-74
2023/08/01 02:02:14;;;;;;;;;;;;;;;18.08;63.59;98818.63;4964955;28;4891;-75
2023/08/01 02:04:40;;;;;;;;;;;;;;;17.92;64.06;98828.31;4968127;28;4816;-74
2023/08/01 02:07:07;;;;;;;;;;;;;;;18.05;63.46;98813.00;4967723;28;4710;-75
2023/08/01 02:09:33;;;;;;;;;;;;;;;17.93;63.83;98817.06;4949560;28;5118;-76
2023/08/01 02:12:00;;;;;;;;;;;;;;;17.99;63.61;98815.03;4962355;28;5034;-75
2023/08/01 02:14:26;;;;;;;;;;;;;;;17.98;63.54;98809.91;4968433;28;4751;-74
2023/08/01 02:16:53;;;;;;;;;;;;;;;17.78;64.17;98803.84;4966466;28;5177;-75
2023/08/01 02:19:20;;;;;;;;;;;;;;;17.98;63.62;98804.47;4966706;28;4741;-74
2023/08/01 02:21:46;;;;;;;;;;;;;;;17.86;63.78;98800.38;4970254;28;4926;-74
2023/08/01 02:24:13;;;;;;;;;;;;;;;17.87;63.88;98796.53;4954669;28;4639;-75
2023/08/01 02:26:39;;;;;;;;;;;;;;;17.81;63.92;98800.50;4968137;28;4921;-75
2023/08/01 02:29:06;;;;;;;;;;;;;;;17.78;64.07;98792.94;4968614;28;4253;-75
2023/08/01 02:31:32;;;;;;;;;;;;;;;17.92;63.49;98795.63;4965969;28;5214;-74
2023/08/01 02:33:59;;;;;;;;;;;;;;;17.68;64.10;98799.44;4965533;28;4969;-75
2023/08/01 02:36:25;;;;;;;;;;;;;;;17.67;64.13;98795.06;4968770;28;4698;-75
2023/08/01 02:38:52;;;;;;;;;;;;;;;17.64;64.41;98789.47;4965321;28;5119;-75
2023/08/01 02:41:18;;;;;;;;;;;;;;;17.75;64.14;98796.28;4966512;28;4977;-75
2023/08/01 02:43:45;;;;;;;;;;;;;;;17.66;64.39;98785.31;4966767;28;4349;-74
2023/08/01 02:46:11;;;;;;;;;;;;;;;17.64;64.45;98787.53;4969648;28;4976;-75
2023/08/01 02:48:38;;;;;;;;;;;;;;;17.66;64.30;98787.25;4968725;28;5413;-75
2023/08/01 02:51:05;;;;;;;;;;;;;;;17.65;64.28;98788.38;4965468;28;4515;-75
2023/08/01 02:53:31;;;;;;;;;;;;;;;17.68;63.89;98788.53;4965940;28;5146;-75
2023/08/01 02:55:58;;;;;;;;;;;;;;;17.46;64.98;98788.50;4967482;28;4994;-75
2023/08/01 02:58:24;;;;;;;;;;;;;;;17.55;64.67;98783.16;4951364;28;5331;-75
2023/08/01 03:00:51;;;;;;;;;;;;;;;17.47;64.82;98780.06;4952026;28;5094;-74
2023/08/01 03:03:17;;;;;;;;;;;;;;;17.68;63.91;98779.56;4966146;28;4979;-74
2023/08/01 03:05:44;;;;;;;;;;;;;;;17.60;64.21;98772.94;4963135;28;5159;-74
2023/08/01 03:08:10;;;;;;;;;;;;;;;17.62;64.03;98775.38;4968775;28;5133;-74
2023/08/01 03:10:37;;;;;;;;;;;;;;;17.42;64.64;98776.66;4966727;28;5254;-74
2023/08/01 03:13:03;;;;;;;;;;;;;;;17.55;64.41;98773.06;4950624;28;4733;-75
2023/08/01 03:15:30;;;;;;;;;;;;;;;17.32;65.31;98769.50;4964606;28;4515;-75
2023/08/01 03:17:56;;;;;;;;;;;;;;;17.33;64.97;98771.13;4967005;28;4854;-75
2023/08/01 03:20:23;;;;;;;;;;;;;;;17.37;64.86;98768.59;4965379;28;5539;-74
2023/08/01 03:22:49;;;;;;;;;;;;;;;17.31;65.03;98778.00;4967456;28;5019;-75
2023/08/01 03:25:16;;;;;;;;;;;;;;;17.43;64.43;98775.53;4949234;28;4858;-75
2023/08/01 03:27:43;;;;;;;;;;;;;;;17.37;64.81;98769.41;4967876;28;5270;-74
2023/08/01 03:30:09;;;;;;;;;;;;;;;17.09;65.55;98765.13;4966838;28;5063;-75
2023/08/01 03:32:36;;;;;;;;;;;;;;;17.18;65.32;98766.03;4955514;28;5093;-76
2023/08/01 03:35:03;;;;;;;;;;;;;;;17.23;64.94;98761.28;4967989;28;4921;-75
2023/08/01 03:37:30;;;;;;;;;;;;;;;17.32;64.79;98757.81;4966978;28;4962;-75
2023/08/01 03:39:56;;;;;;;;;;;;;;;17.15;65.18;98759.31;4965868;28;4968;-75
2023/08/01 03:42:23;;;;;;;;;;;;;;;17.16;65.12;98758.19;4969085;28;4224;-74
2023/08/01 03:44:49;;;;;;;;;;;;;;;17.14;65.22;98759.59;4965964;28;4535;-75
2023/08/01 03:47:16;;;;;;;;;;;;;;;17.20;65.03;98756.44;4965932;28;4606;-74
2023/08/01 03:49:42;;;;;;;;;;;;;;;17.27;64.70;98757.97;4964080;28;4480;-74
2023/08/01 03:52:10;;;;;;;;;;;;;;;17.23;64.79;98757.75;4969322;28;4571;-74
2023/08/01 03:54:36;;;;;;;;;;;;;;;17.24;64.64;98752.03;4968449;28;5103;-74
2023/08/01 03:57:03;;;;;;;;;;;;;;;17.09;65.17;98751.53;4968246;28;4629;-74
2023/08/01 03:59:29;;;;;;;;;;;;;;;17.03;65.17;98751.69;4964425;28;4606;-75
2023/08/01 04:01:56;;;;;;;;;;;;;;;17.02;65.39;98743.81;4966856;28;4239;-75
2023/08/01 04:04:22;;;;;;;;;;;;;;;16.99;65.33;98739.78;4966218;28;4796;-76
2023/08/01 04:06:49;;;;;;;;;;;;;;;17.14;64.86;98735.91;4966497;28;4418;-76
2023/08/01 04:09:15;;;;;;;;;;;;;;;17.20;64.47;98737.41;4966170;28;4919;-75
2023/08/01 04:11:42;;;;;;;;;;;;;;;17.09;64.95;98727.06;4951687;28;4604;-74
2023/08/01 04:14:33;;;;;;;;;;;;;;;16.97;65.41;98730.31;4971713;28;5217;-75
2023/08/01 04:17:25;;;;;;;;;;;;;;;16.93;65.38;98732.06;4972118;28;5008;-75
2023/08/01 04:20:17;;;;;;;;;;;;;;;17.09;64.92;98722.44;4969580;28;4502;-75
2023/08/01 04:23:09;;;;;;;;;;;;;;;16.98;65.09;98719.16;4973478;28;4752;-77
2023/08/01 04:26:01;;;;;;;;;;;;;;;16.95;65.20;98719.75;4970625;28;4720;-75
2023/08/01 04:28:53;;;;;;;;;;;;;;;17.10;64.79;98715.88;4969661;28;4709;-77
2023/08/01 04:31:45;;;;;;;;;;;;;;;16.88;65.33;98716.63;4969975;28;4592;-76
2023/08/01 04:34:37;;;;;;;;;;;;;;;16.75;65.82;98715.53;4972720;28;4416;-76
2023/08/01 04:37:29;;;;;;;;;;;;;;;16.85;65.61;98716.44;4976249;28;4384;-75
2023/08/01 04:40:20;;;;;;;;;;;;;;;16.76;65.70;98711.72;4975296;28;5060;-75
2023/08/01 04:43:12;;;;;;;;;;;;;;;16.84;65.30;98710.22;4976196;28;4540;-74
2023/08/01 04:46:04;;;;;;;;;;;;;;;16.70;65.95;98710.19;4970404;28;4527;-75
2023/08/01 04:48:56;;;;;;;;;;;;;;;16.76;65.61;98711.72;4970177;28;4910;-75
2023/08/01 04:51:47;;;;;;;;;;;;;;;16.73;65.67;98709.59;4970361;28;5019;-76
2023/08/01 04:54:39;;;;;;;;;;;;;;;16.83;65.42;98702.38;4970270;28;5039;-75
2023/08/01 04:57:31;;;;;;;;;;;;;;;16.66;65.79;98703.78;4972663;28;4276;-77
2023/08/01 05:00:23;;;;;;;;;;;;;;;16.65;65.87;98706.78;4974002;28;4570;-75
2023/08/01 05:03:15;;;;;;;;;;;;;;;16.69;65.66;98697.72;4971205;28;4204;-75
2023/08/01 05:06:07;;;;;;;;;;;;;;;16.63;65.93;98698.94;4968323;28;4976;-75
2023/08/01 05:08:59;;;;;;;;;;;;;;;16.63;65.79;98698.94;4971590;28;4648;-74
2023/08/01 05:11:51;;;;;;;;;;;;;;;16.63;65.81;98701.66;4971977;28;4472;-74
2023/08/01 05:14:43;;;;;;;;;;;;;;;16.57;65.94;98703.69;4969853;28;4940;-77
2023/08/01 05:17:35;;;;;;;;;;;;;;;16.58;65.93;98699.84;4971878;28;4420;-75
2023/08/01 05:20:33;;;;;;;;;;;;;;;16.52;66.11;98701.06;4967280;28;5447;-75
2023/08/01 05:23:25;;;;;;;;;;;;;;;16.48;66.11;98694.66;4970842;28;5004;-76
2023/08/01 05:26:16;;;;;;;;;;;;;;;16.52;65.95;98687.47;4970776;28;5106;-75
2023/08/01 05:29:08;;;;;;;;;;;;;;;16.44;66.15;98693.66;4971837;28;5155;-76
2023/08/01 05:32:00;;;;;;;;;;;;;;;16.45;66.21;98700.69;4972112;28;5110;-74
2023/08/01 05:34:52;;;;;;;;;;;;;;;16.53;65.89;98697.25;4968808;28;4658;-76
2023/08/01 05:37:44;;;;;;;;;;;;;;;16.45;66.10;98697.97;4970538;28;4712;-75
2023/08/01 05:40:36;;;;;;;;;;;;;;;16.36;66.47;98697.06;4971878;28;4264;-75
2023/08/01 05:43:28;;;;;;;;;;;;;;;16.43;66.30;98693.94;4970545;28;4665;-74
2023/08/01 05:46:20;;;;;;;;;;;;;;;16.35;66.44;98690.84;4969833;28;4350;-76
2023/08/01 05:49:12;;;;;;;;;;;;;;;16.42;66.20;98692.34;4969033;28;4987;-74
2023/08/01 05:52:04;;;;;;;;;;;;;;;16.43;66.08;98693.94;4970842;28;5008;-75
2023/08/01 05:54:56;;;;;;;;;;;;;;;16.49;65.81;98687.28;4970600;28;5068;-78
2023/08/01 05:57:48;;;;;;;;;;;;;;;16.44;65.99;98684.69;4969572;28;5256;-76
2023/08/01 06:00:40;;;;;;;;;;;;;;;16.38;66.08;98677.75;4970235;28;5209;-76
2023/08/01 06:03:31;;;;;;;;;;;;;;;16.37;66.00;98676.94;4965320;28;5468;-75
2023/08/01 06:06:23;;;;;;;;;;;;;;;16.33;66.14;98690.34;4967716;28;4937;-75
2023/08/01 06:09:15;;;;;;;;;;;;;;;16.30;66.36;98690.13;4968701;28;4546;-75
2023/08/01 06:12:07;;;;;;;;;;;;;;;16.38;65.98;98685.88;4963826;28;4906;-75
2023/08/01 06:14:59;;;;;;;;;;;;;;;16.29;66.25;98691.22;4965588;28;5063;-77
2023/08/01 06:17:51;;;;;;;;;;;;;;;16.28;66.29;98687.72;4968310;28;5178;-74
2023/08/01 06:20:43;;;;;;;;;;;;;;;16.40;65.79;98689.13;4967235;28;4651;-74
2023/08/01 06:23:35;;;;;;;;;;;;;;;16.30;66.19;98692.84;4967224;28;5056;-76
2023/08/01 06:26:27;;;;;;;;;;;;;;;16.39;65.75;98690.22;4967747;28;5049;-74
2023/08/01 06:29:19;;;;;;;;;;;;;;;16.36;65.90;98694.34;4966419;28;5234;-75
2023/08/01 06:32:10;;;;;;;;;;;;;;;16.28;66.15;98684.19;4966547;28;5363;-76
2023/08/01 06:35:02;;;;;;;;;;;;;;;16.36;65.85;98686.22;4966912;28;4993;-75
2023/08/01 06:37:54;;;;;;;;;;;;;;;16.27;66.04;98686.09;4968375;28;4334;-77
2023/08/01 06:40:46;;;;;;;;;;;;;;;16.28;66.04;98685.00;4967993;28;5087;-75
2023/08/01 06:43:38;;;;;;;;;;;;;;;16.28;65.98;98690.44;4969442;28;5110;-77
2023/08/01 06:46:30;;;;;;;;;;;;;;;16.23;66.17;98687.81;4969965;28;4946;-77
2023/08/01 06:49:22;;;;;;;;;;;;;;;16.31;65.80;98681.66;4967835;28;5024;-75
2023/08/01 06:52:14;;;;;;;;;;;;;;;16.29;66.04;98688.50;4969496;28;4775;-76
2023/08/01 06:55:06;;;;;;;;;;;;;;;16.39;65.54;98680.16;4967112;28;5016;-76
2023/08/01 06:57:58;;;;;;;;;;;;;;;15.99;65.27;98609.25;4967435;28;5127;-75
2023/08/01 07:00:50;;;;;;;;;;;;;;;16.31;65.85;98678.94;4966939;28;4852;-77
2023/08/01 07:03:43;;;;;;;;;;;;;;;16.25;66.04;98682.88;4966867;28;5048;-77
2023/08/01 07:06:37;;;;;;;;;;;;;;;16.24;66.01;98700.28;4966812;28;4917;-76
2023/08/01 07:09:29;;;;;;;;;;;;;;;16.30;65.84;98674.63;4970096;28;4909;-75
2023/08/01 07:12:21;;;;;;;;;;;;;;;16.23;66.12;98685.09;4971903;28;5044;-76
2023/08/01 07:15:13;;;;;;;;;;;;;;;16.20;66.05;98684.88;4969834;28;4783;-76
2023/08/01 07:18:05;;;;;;;;;;;;;;;16.28;65.84;98689.63;4967672;28;4927;-77
2023/08/01 07:20:57;;;;;;;;;;;;;;;16.22;66.09;98682.69;4967487;28;4949;-76
2023/08/01 07:23:49;;;;;;;;;;;;;;;16.20;66.10;98679.47;4968772;28;4438;-77
2023/08/01 07:26:41;;;;;;;;;;;;;;;16.18;66.10;98679.78;4965813;28;4527;-76
2023/08/01 07:29:33;;;;;;;;;;;;;;;16.22;66.11;98679.97;4969601;28;5003;-78
2023/08/01 07:32:25;;;;;;;;;;;;;;;16.19;66.08;98681.38;4968497;28;4267;-74
2023/08/01 07:35:17;;;;;;;;;;;;;;;16.19;66.10;98683.28;4970728;28;4888;-76
2023/08/01 07:38:09;;;;;;;;;;;;;;;16.31;65.75;98687.09;4970096;28;4390;-74
2023/08/01 07:41:01;;;;;;;;;;;;;;;16.22;66.00;98685.41;4969857;28;4551;-74
2023/08/01 07:43:53;;;;;;;;;;;;;;;16.24;66.02;98683.19;4967833;28;4267;-77
2023/08/01 07:46:45;;;;;;;;;;;;;;;16.20;66.10;98684.88;4970233;28;5147;-75
2023/08/01 07:49:37;;;;;;;;;;;;;;;16.23;65.92;98685.09;4972490;28;4510;-75
2023/08/01 07:52:29;;;;;;;;;;;;;;;16.20;66.05;98682.97;4975252;28;4487;-75
2023/08/01 07:55:21;;;;;;;;;;;;;;;16.20;65.97;98679.47;4974055;28;4668;-76
2023/08/01 07:58:13;;;;;;;;;;;;;;;16.23;65.99;98678.84;4973236;28;4551;-78
2023/08/01 08:01:04;;;;;;;;;;;;;;;16.20;66.04;98680.25;4974787;28;4364;-75
2023/08/01 08:03:56;;;;;;;;;;;;;;;16.18;66.08;98677.06;4974756;28;4599;-77
2023/08/01 08:06:48;;;;;;;;;;;;;;;16.19;66.11;98681.38;4974116;28;4487;-77
2023/08/01 08:09:40;;;;;;;;;;;;;;;16.26;65.78;98679.06;4974310;28;4530;-77
2023/08/01 08:12:32;;;;;;;;;;;;;;;16.20;65.98;98672.13;4975271;28;4668;-75
2023/08/01 08:15:26;;;;;;;;;;;;;;;16.20;65.95;98674.81;4972456;28;4475;-76
2023/08/01 08:18:18;;;;;;;;;;;;;;;16.20;66.11;98674.81;4972957;28;4990;-75
2023/08/01 08:21:10;;;;;;;;;;;;;;;16.19;66.07;98673.22;4974326;28;4502;-78
2023/08/01 08:24:01;;;;;;;;;;;;;;;16.21;66.05;98667.50;4974065;28;4595;-76
2023/08/01 08:26:53;;;;;;;;;;;;;;;16.22;65.93;98663.69;4973769;28;4400;-76
2023/08/01 08:29:45;;;;;;;;;;;;;;;16.22;66.00;98666.41;4974196;28;4657;-76
2023/08/01 08:32:37;;;;;;;;;;;;;;;16.22;65.96;98656.31;4974610;28;4571;-74
2023/08/01 08:35:29;;;;;;;;;;;;;;;16.22;66.06;98655.53;4933661;28;5033;-75
2023/08/01 08:38:21;;;;;;;;;;;;;;;16.22;66.06;98661.75;4933344;28;4620;-77
2023/08/01 08:41:12;;;;;;;;;;;;;;;16.22;65.93;98660.97;4932542;28;4585;-75
2023/08/01 08:44:04;;;;;;;;;;;;;;;16.22;65.99;98659.03;4933081;28;4690;-74
2023/08/01 08:46:55;;;;;;;;;;;;;;;16.25;65.95;98663.06;4932469;28;4773;-73
2023/08/01 08:49:47;;;;;;;;;;;;;;;16.24;65.91;98665.00;4931886;28;4763;-75
2023/08/01 08:52:39;;;;;;;;;;;;;;;16.24;65.97;98662.28;4931885;28;4697;-76
2023/08/01 08:55:31;;;;;;;;;;;;;;;16.25;65.70;98657.63;4932070;28;4550;-75
2023/08/01 08:58:23;;;;;;;;;;;;;;;16.25;65.99;98658.44;4933370;28;4713;-76
2023/08/01 09:01:14;;;;;;;;;;;;;;;16.26;65.91;98656.53;4934098;28;4932;-76
2023/08/01 09:04:06;;;;;;;;;;;;;;;16.26;65.97;98661.94;4931427;28;4684;-75
2023/08/01 09:06:58;;;;;;;;;;;;;;;16.26;65.92;98656.53;4932196;28;5017;-76
2023/08/01 09:09:50;;;;;;;;;;;;;;;16.25;65.96;98657.63;4933487;28;5147;-76
2023/08/01 09:12:42;;;;;;;;;;;;;;;16.26;65.92;98651.88;4930411;28;5114;-75
2023/08/01 09:15:35;;;;;;;;;;;;;;;16.27;65.93;98652.72;4932252;28;5081;-77
2023/08/01 09:18:27;;;;;;;;;;;;;;;16.27;65.88;98655.44;4932166;28;4838;-77
2023/08/01 09:21:19;;;;;;;;;;;;;;;16.26;65.87;98651.88;4933257;28;4440;-77
2023/08/01 09:24:10;;;;;;;;;;;;;;;16.26;65.97;98645.66;4931998;28;5264;-76
2023/08/01 09:27:02;;;;;;;;;;;;;;;16.27;65.88;98642.66;4932198;28;5054;-77
2023/08/01 09:29:54;;;;;;;;;;;;;;;16.28;65.91;98644.25;4934073;28;4254;-78
2023/08/01 09:32:45;;;;;;;;;;;;;;;16.29;65.94;98642.34;4931952;28;5182;-77
2023/08/01 09:35:37;;;;;;;;;;;;;;;16.28;65.80;98641.53;4973166;28;4398;-75
2023/08/01 09:38:29;;;;;;;;;;;;;;;16.29;65.91;98636.91;4974054;28;4333;-76
2023/08/01 09:41:21;;;;;;;;;;;;;;;16.28;65.89;98633.38;4973075;28;4724;-75
2023/08/01 09:44:13;;;;;;;;;;;;;;;16.30;65.78;98636.59;4970814;28;4419;-76
2023/08/01 09:47:06;;;;;;;;;;;;;;;16.30;65.92;98631.19;4972194;28;4705;-76
2023/08/01 09:49:58;;;;;;;;;;;;;;;16.31;65.82;98629.25;4971961;28;4907;-77
2023/08/01 09:52:52;;;;;;;;;;;;;;;16.30;65.88;98617.59;4972061;28;4381;-79
2023/08/01 09:55:44;;;;;;;;;;;;;;;16.30;65.84;98619.50;4971550;28;4451;-78
2023/08/01 09:58:36;;;;;;;;;;;;;;;16.30;65.80;98614.88;4972423;28;5239;-76
2023/08/01 10:01:28;;;;;;;;;;;;;;;16.31;65.82;98619.19;4972164;28;4552;-76
2023/08/01 10:04:20;;;;;;;;;;;;;;;16.31;65.83;98616.47;4972568;28;4352;-75
2023/08/01 10:07:12;;;;;;;;;;;;;;;16.32;65.93;98620.00;4970630;28;5204;-76
2023/08/01 10:10:04;;;;;;;;;;;;;;;16.33;65.81;98614.28;4970641;28;4286;-78
2023/08/01 10:12:56;;;;;;;;;;;;;;;16.34;65.91;98613.16;4972114;28;4602;-75
2023/08/01 10:15:47;;;;;;;;;;;;;;;16.34;65.79;98609.63;4971767;28;5123;-75
2023/08/01 10:18:39;;;;;;;;;;;;;;;16.34;65.83;98607.72;4969175;28;5159;-77
2023/08/01 10:21:31;;;;;;;;;;;;;;;16.36;65.79;98604.72;4970464;28;4575;-77
2023/08/01 10:24:23;;;;;;;;;;;;;;;16.39;65.72;98597.88;4971793;28;4835;-77
2023/08/01 10:27:15;;;;;;;;;;;;;;;16.38;65.67;98597.03;4970317;28;4571;-76
2023/08/01 10:30:09;;;;;;;;;;;;;;;16.41;65.70;98596.44;4970470;28;5115;-76
2023/08/01 10:33:00;;;;;;;;;;;;;;;16.42;65.75;98597.25;4970741;28;4458;-77
2023/08/01 10:35:52;;;;;;;;;;;;;;;16.41;65.82;98590.19;4970772;28;5374;-75
2023/08/01 10:38:44;;;;;;;;;;;;;;;16.39;65.67;98593.22;4968799;28;4330;-76
2023/08/01 10:41:36;;;;;;;;;;;;;;;16.41;65.84;98584.75;4967481;28;4752;-76
2023/08/01 10:44:30;;;;;;;;;;;;;;;16.43;65.78;98582.56;4968616;28;4405;-77
2023/08/01 10:47:21;;;;;;;;;;;;;;;16.43;65.77;98585.28;4969376;28;5122;-76
2023/08/01 10:50:13;;;;;;;;;;;;;;;16.44;65.96;98581.44;4972295;28;4951;-77
2023/08/01 10:53:06;;;;;;;;;;;;;;;16.46;65.79;98577.31;4968669;28;4862;-76
2023/08/01 10:55:57;;;;;;;;;;;;;;;16.48;65.74;98582.44;4970630;28;4537;-77
2023/08/01 10:58:49;;;;;;;;;;;;;;;16.50;65.73;98586.47;4969974;28;4249;-75
2023/08/01 11:01:43;;;;;;;;;;;;;;;16.51;65.72;98585.34;4970404;28;4980;-76
2023/08/01 11:04:34;;;;;;;;;;;;;;;16.52;65.74;98581.50;4969773;28;4424;-76
2023/08/01 11:07:26;;;;;;;;;;;;;;;16.54;65.75;98582.03;4969512;28;5184;-76
2023/08/01 11:10:18;;;;;;;;;;;;;;;16.55;65.56;98580.91;4967806;28;4407;-75
2023/08/01 11:13:10;;;;;;;;;;;;;;;16.55;65.65;98585.53;4967396;28;4426;-76
2023/08/01 11:16:02;;;;;;;;;;;;;;;16.55;65.68;98580.91;4969049;28;4824;-76
2023/08/01 11:18:54;;;;;;;;;;;;;;;16.57;65.55;98577.88;4970360;28;5167;-75
2023/08/01 11:21:46;;;;;;;;;;;;;;;16.55;65.83;98578.19;4966934;28;4996;-76
2023/08/01 11:24:38;;;;;;;;;;;;;;;16.57;65.79;98570.53;4969231;28;4408;-77
2023/08/01 11:27:30;;;;;;;;;;;;;;;16.67;65.29;98569.47;4968082;28;4487;-76
2023/08/01 11:30:22;;;;;;;;;;;;;;;16.67;65.34;98571.41;4968110;28;4907;-76
2023/08/01 11:33:14;;;;;;;;;;;;;;;16.68;65.40;98567.59;4968172;28;4233;-76
2023/08/01 11:36:06;;;;;;;;;;;;;;;16.64;65.60;98578.25;4967552;28;5110;-76
2023/08/01 11:38:58;;;;;;;;;;;;;;;16.19;65.58;98512.19;4969075;28;5093;-78
2023/08/01 11:41:50;;;;;;;;;;;;;;;16.62;65.66;98569.63;4969166;28;5031;-78
2023/08/01 11:44:42;;;;;;;;;;;;;;;16.68;65.45;98567.59;4967585;28;5388;-76
2023/08/01 11:47:34;;;;;;;;;;;;;;;16.72;65.25;98561.22;4967701;28;4747;-77
2023/08/01 11:50:26;;;;;;;;;;;;;;;16.76;65.30;98566.88;4968070;28;4967;-77
2023/08/01 11:53:18;;;;;;;;;;;;;;;16.71;65.40;98566.97;4969354;28;4984;-76
2023/08/01 11:56:10;;;;;;;;;;;;;;;16.65;65.72;98571.72;4968559;28;4226;-77
2023/08/01 11:59:02;;;;;;;;;;;;;;;16.64;65.78;98567.38;4967324;28;5125;-77
2023/08/01 12:01:54;;;;;;;;;;;;;;;16.63;66.09;98575.84;4967184;28;4704;-77
2023/08/01 12:04:46;;;;;;;;;;;;;;;16.61;65.94;98572.63;4970523;28;4344;-78
2023/08/01 12:07:38;;;;;;;;;;;;;;;16.62;66.01;98574.22;4968713;28;4132;-77
2023/08/01 12:10:30;;;;;;;;;;;;;;;16.64;65.93;98577.47;4969534;28;4783;-76
2023/08/01 12:13:22;;;;;;;;;;;;;;;16.66;65.84;98570.59;4968609;28;4993;-76
2023/08/01 12:16:19;;;;;;;;;;;;;;;16.71;65.69;98570.50;4968442;28;5219;-76
2023/08/01 12:19:11;;;;;;;;;;;;;;;16.69;65.71;98567.28;4968818;28;4413;-76
2023/08/01 12:22:03;;;;;;;;;;;;;;;16.67;65.92;98564.06;4970190;28;4405;-75
2023/08/01 12:24:55;;;;;;;;;;;;;;;16.72;65.71;98569.38;4970886;28;4643;-79
2023/08/01 12:27:47;;;;;;;;;;;;;;;16.72;65.83;98558.50;4969520;28;4286;-78
2023/08/01 12:30:39;;;;;;;;;;;;;;;16.71;65.84;98565.06;4968227;28;5180;-77
2023/08/01 12:33:31;;;;;;;;;;;;;;;16.71;65.82;98564.25;4969821;28;4418;-75
2023/08/01 12:36:23;;;;;;;;;;;;;;;16.73;65.80;98564.72;4972787;28;4136;-78
2023/08/01 12:39:15;;;;;;;;;;;;;;;16.74;65.81;98566.34;4971674;28;4973;-76
2023/08/01 12:42:07;;;;;;;;;;;;;;;16.77;65.71;98563.84;4972405;28;5057;-77
2023/08/01 12:44:59;;;;;;;;;;;;;;;16.74;65.88;98563.63;4971948;28;5202;-75
2023/08/01 12:47:51;;;;;;;;;;;;;;;16.74;66.01;98560.94;4974478;28;4827;-78
2023/08/01 12:50:43;;;;;;;;;;;;;;;16.75;66.11;98566.03;4972192;28;4369;-77
2023/08/01 12:53:35;;;;;;;;;;;;;;;16.74;65.91;98563.63;4972670;28;5055;-77
2023/08/01 12:56:27;;;;;;;;;;;;;;;16.76;65.92;98558.72;4972518;28;4509;-76
2023/08/01 12:59:19;;;;;;;;;;;;;;;16.77;66.06;98558.41;4972444;28;5073;-78
2023/08/01 13:02:11;;;;;;;;;;;;;;;16.78;66.10;98561.94;4972715;28;5060;-76
2023/08/01 13:05:03;;;;;;;;;;;;;;;16.77;65.96;98555.69;4973318;28;5083;-76
2023/08/01 13:07:55;;;;;;;;;;;;;;;16.78;66.13;98553.78;4971717;28;5049;-76
2023/08/01 13:10:49;;;;;;;;;;;;;;;16.78;66.16;98559.22;4973048;28;4304;-76
2023/08/01 13:13:41;;;;;;;;;;;;;;;16.76;66.28;98556.78;4970646;28;5167;-75
2023/08/01 13:16:33;;;;;;;;;;;;;;;16.75;66.25;98557.09;4970639;28;5044;-76
2023/08/01 13:19:25;;;;;;;;;;;;;;;16.75;66.28;98562.53;4970661;28;5132;-76
2023/08/01 13:22:17;;;;;;;;;;;;;;;16.75;66.27;98560.59;4972137;28;4931;-78
2023/08/01 13:25:09;;;;;;;;;;;;;;;16.75;66.22;98555.16;4972284;28;4792;-75
2023/08/01 13:28:02;;;;;;;;;;;;;;;16.76;66.28;98558.72;4971490;28;4207;-76
2023/08/01 13:30:53;;;;;;;;;;;;;;;16.76;66.30;98556.00;4971127;28;4501;-78
2023/08/01 13:33:45;;;;;;;;;;;;;;;16.77;66.27;98563.84;4970965;28;4538;-77
2023/08/01 13:36:37;;;;;;;;;;;;;;;16.78;66.48;98562.72;4971065;28;4345;-75
2023/08/01 13:39:29;;;;;;;;;;;;;;;16.79;66.29;98560.81;4972548;28;5106;-78
2023/08/01 13:42:21;;;;;;;;;;;;;;;16.80;66.38;98557.00;4971155;28;5045;-76
2023/08/01 13:45:13;;;;;;;;;;;;;;;16.80;66.25;98557.00;4970210;28;4113;-77
2023/08/01 13:48:05;;;;;;;;;;;;;;;16.80;66.30;98549.66;4971440;28;4279;-75
2023/08/01 13:50:57;;;;;;;;;;;;;;;16.84;66.22;98549.03;4970142;28;4218;-77
2023/08/01 13:53:49;;;;;;;;;;;;;;;16.84;66.34;98546.31;4968059;28;4988;-76
2023/08/01 13:56:41;;;;;;;;;;;;;;;16.86;66.21;98539.44;4969554;28;4971;-76
2023/08/01 13:59:33;;;;;;;;;;;;;;;16.88;66.26;98537.19;4968317;28;4479;-77
2023/08/01 14:02:25;;;;;;;;;;;;;;;16.89;66.39;98546.19;4967024;28;4458;-78
2023/08/01 14:05:17;;;;;;;;;;;;;;;16.91;66.35;98538.50;4970590;28;4815;-77
2023/08/01 14:08:09;;;;;;;;;;;;;;;16.92;66.28;98537.41;4970221;28;4337;-78
2023/08/01 14:11:01;;;;;;;;;;;;;;;16.93;66.11;98545.25;4970789;28;4266;-76
2023/08/01 14:13:55;;;;;;;;;;;;;;;16.95;66.05;98543.03;4971855;28;4525;-77
2023/08/01 14:16:47;;;;;;;;;;;;;;;16.96;66.41;98533.75;4969643;28;5075;-78
2023/08/01 14:19:38;;;;;;;;;;;;;;;16.96;66.31;98525.59;4971807;28;4735;-76
2023/08/01 14:22:30;;;;;;;;;;;;;;;16.99;66.33;98537.75;4967595;28;4960;-76